createdAt,value
2022-09-14T00:10:18.521Z,99166.64
2022-09-14T00:27:06.934Z,99164.14
2022-09-14T00:44:03.818Z,99158.47
2022-09-14T01:00:56.114Z,99150.70
2022-09-14T01:17:51.988Z,99162.98
2022-09-14T01:34:47.549Z,99153.16
2022-09-14T01:51:43.035Z,99141.95
2022-09-14T02:08:33.582Z,99128.23
2022-09-14T02:25:22.726Z,99112.42
2022-09-14T02:42:19.828Z,99110.66
2022-09-14T02:59:08.190Z,99116.50
2022-09-14T03:15:57.619Z,99122.92
2022-09-14T03:32:46.733Z,99124.91
2022-09-14T03:49:36.862Z,99109.98
2022-09-14T04:06:26.435Z,99110.04
2022-09-14T04:23:16.946Z,99102.65
2022-09-14T04:40:06.595Z,99091.59
2022-09-14T04:56:55.872Z,99090.21
2022-09-14T05:13:49.534Z,99090.13
2022-09-14T05:30:42.910Z,99092.16
2022-09-14T05:47:37.085Z,99088.98
2022-09-14T06:04:28.303Z,99090.40
2022-09-14T06:21:19.486Z,99085.67
2022-09-14T06:38:07.956Z,99100.95
2022-09-14T06:54:57.043Z,99110.38
2022-09-14T07:11:46.361Z,99127.35
2022-09-14T07:28:34.643Z,99135.58
2022-09-14T07:45:23.911Z,99142.46
2022-09-14T08:02:13.228Z,99135.33
2022-09-14T08:19:04.573Z,99138.14
2022-09-14T08:35:59.832Z,99140.40
2022-09-14T08:52:50.806Z,99139.84
2022-09-14T09:09:46.973Z,99132.34
2022-09-14T09:26:35.988Z,99123.14
2022-09-14T09:43:45.813Z,99127.62
2022-09-14T10:00:37.592Z,99123.83
2022-09-14T10:17:26.914Z,99125.20
2022-09-14T10:34:20.913Z,99125.17
2022-09-14T10:51:27.455Z,99127.44
2022-09-14T11:08:26.196Z,99124.67
2022-09-14T11:25:18.852Z,99126.06
2022-09-14T11:42:11.396Z,99131.77
2022-09-14T11:59:01.557Z,99114.14
2022-09-14T12:16:02.888Z,99108.98
2022-09-14T12:32:54.070Z,99104.96
2022-09-14T12:49:44.242Z,99096.95
2022-09-14T13:06:49.317Z,99100.31
2022-09-14T13:23:45.650Z,99092.06
2022-09-14T13:40:34.546Z,99082.34
2022-09-14T13:57:26.941Z,99066.06
2022-09-14T14:14:28.856Z,99060.06
2022-09-14T14:31:22.117Z,99053.23
2022-09-14T14:48:15.542Z,99047.89
2022-09-14T15:05:05.711Z,99048.56
2022-09-14T15:22:00.124Z,99033.21
2022-09-14T15:38:49.822Z,99018.86
2022-09-14T15:55:41.376Z,99018.04
2022-09-14T16:12:31.653Z,99010.92
2022-09-14T16:29:24.553Z,99005.52
2022-09-14T16:46:18.057Z,99001.42
2022-09-14T17:03:05.039Z,99000.37
2022-09-14T17:19:53.616Z,99000.88
2022-09-14T17:36:45.688Z,99013.23
2022-09-14T17:53:37.854Z,99017.28
2022-09-14T18:10:27.892Z,99006.77
2022-09-14T18:27:19.255Z,99003.48
2022-09-14T18:44:09.573Z,99004.36
2022-09-14T19:00:59.150Z,99005.98
2022-09-14T19:17:48.511Z,98991.39
2022-09-14T19:34:39.193Z,98974.27
2022-09-14T19:51:31.246Z,98978.09
2022-09-14T20:08:20.258Z,98972.17
2022-09-14T20:25:10.737Z,98959.55
2022-09-14T20:42:01.208Z,98952.73
2022-09-14T20:58:50.925Z,98944.59
2022-09-14T21:15:39.442Z,98941.12
2022-09-14T21:32:28.331Z,98936.20
2022-09-14T21:49:21.762Z,98937.76
2022-09-14T22:06:13.353Z,98932.19
2022-09-14T22:23:02.248Z,98926.33
2022-09-14T22:39:50.682Z,98895.39
2022-09-14T22:56:42.654Z,98882.86
2022-09-14T23:13:33.045Z,98863.35
2022-09-14T23:30:23.195Z,98843.83
2022-09-14T23:47:13.115Z,98834.20
